sensor_id;sensor_type;location;lat;lon;timestamp;P1;durP1;ratioP1;P2;durP2;ratioP2
8777;SDS011;4425;50.872;4.712;2022-11-15T00:01:25;20.55;;;18.38;;
8777;SDS011;4425;50.872;4.712;2022-11-15T00:03:52;20.50;;;18.40;;
8777;SDS011;4425;50.872;4.712;2022-11-15T00:06:20;20.52;;;18.33;;
8777;SDS011;4425;50.872;4.712;2022-11-15T00:08:47;20.35;;;18.23;;
8777;SDS011;4425;50.872;4.712;2022-11-15T00:11:15;20.65;;;18.27;;
8777;SDS011;4425;50.872;4.712;2022-11-15T00:13:42;21.77;;;18.90;;
8777;SDS011;4425;50.872;4.712;2022-11-15T00:16:10;20.23;;;17.93;;
8777;SDS011;4425;50.872;4.712;2022-11-15T00:18:39;23.10;;;19.30;;
8777;SDS011;4425;50.872;4.712;2022-11-15T00:21:08;20.73;;;18.63;;
8777;SDS011;4425;50.872;4.712;2022-11-15T00:23:37;20.85;;;18.15;;
8777;SDS011;4425;50.872;4.712;2022-11-15T00:26:06;21.05;;;18.50;;
8777;SDS011;4425;50.872;4.712;2022-11-15T00:28:37;21.42;;;18.60;;
8777;SDS011;4425;50.872;4.712;2022-11-15T00:31:04;19.97;;;17.83;;
8777;SDS011;4425;50.872;4.712;2022-11-15T00:33:45;22.45;;;18.58;;
8777;SDS011;4425;50.872;4.712;2022-11-15T00:36:14;24.20;;;18.58;;
8777;SDS011;4425;50.872;4.712;2022-11-15T00:38:42;20.27;;;18.17;;
8777;SDS011;4425;50.872;4.712;2022-11-15T00:41:09;18.67;;;16.77;;
8777;SDS011;4425;50.872;4.712;2022-11-15T00:43:37;17.95;;;16.05;;
8777;SDS011;4425;50.872;4.712;2022-11-15T00:46:05;19.87;;;17.53;;
8777;SDS011;4425;50.872;4.712;2022-11-15T00:48:33;20.02;;;17.65;;
8777;SDS011;4425;50.872;4.712;2022-11-15T00:51:02;19.13;;;17.17;;
8777;SDS011;4425;50.872;4.712;2022-11-15T00:53:31;19.08;;;17.05;;
8777;SDS011;4425;50.872;4.712;2022-11-15T00:55:58;21.92;;;18.77;;
8777;SDS011;4425;50.872;4.712;2022-11-15T00:58:25;20.83;;;18.63;;
8777;SDS011;4425;50.872;4.712;2022-11-15T01:00:55;21.03;;;18.83;;
8777;SDS011;4425;50.872;4.712;2022-11-15T01:03:22;21.20;;;18.90;;
8777;SDS011;4425;50.872;4.712;2022-11-15T01:05:49;23.65;;;18.60;;
8777;SDS011;4425;50.872;4.712;2022-11-15T01:08:18;23.73;;;18.98;;
8777;SDS011;4425;50.872;4.712;2022-11-15T01:10:45;19.38;;;17.40;;
8777;SDS011;4425;50.872;4.712;2022-11-15T01:13:12;19.95;;;18.05;;
8777;SDS011;4425;50.872;4.712;2022-11-15T01:15:40;21.45;;;19.08;;
8777;SDS011;4425;50.872;4.712;2022-11-15T01:18:08;20.25;;;18.17;;
8777;SDS011;4425;50.872;4.712;2022-11-15T01:20:38;20.95;;;18.75;;
8777;SDS011;4425;50.872;4.712;2022-11-15T01:23:06;20.92;;;18.63;;
8777;SDS011;4425;50.872;4.712;2022-11-15T01:25:35;23.02;;;20.40;;
8777;SDS011;4425;50.872;4.712;2022-11-15T01:28:02;22.70;;;20.30;;
8777;SDS011;4425;50.872;4.712;2022-11-15T01:30:30;24.52;;;20.60;;
8777;SDS011;4425;50.872;4.712;2022-11-15T01:32:57;24.70;;;21.02;;
8777;SDS011;4425;50.872;4.712;2022-11-15T01:35:25;22.48;;;20.02;;
8777;SDS011;4425;50.872;4.712;2022-11-15T01:37:54;24.95;;;20.42;;
8777;SDS011;4425;50.872;4.712;2022-11-15T01:40:21;24.48;;;20.65;;
8777;SDS011;4425;50.872;4.712;2022-11-15T01:42:49;26.73;;;21.13;;
8777;SDS011;4425;50.872;4.712;2022-11-15T01:45:16;22.85;;;20.45;;
8777;SDS011;4425;50.872;4.712;2022-11-15T01:47:44;23.45;;;20.95;;
8777;SDS011;4425;50.872;4.712;2022-11-15T01:50:15;26.25;;;21.33;;
8777;SDS011;4425;50.872;4.712;2022-11-15T01:52:47;25.03;;;22.33;;
8777;SDS011;4425;50.872;4.712;2022-11-15T01:55:14;23.50;;;20.30;;
8777;SDS011;4425;50.872;4.712;2022-11-15T01:57:46;26.47;;;21.13;;
8777;SDS011;4425;50.872;4.712;2022-11-15T02:00:17;27.58;;;22.17;;
8777;SDS011;4425;50.872;4.712;2022-11-15T02:02:44;24.55;;;21.35;;
8777;SDS011;4425;50.872;4.712;2022-11-15T02:05:12;22.95;;;20.55;;
8777;SDS011;4425;50.872;4.712;2022-11-15T02:07:39;24.30;;;20.60;;
8777;SDS011;4425;50.872;4.712;2022-11-15T02:10:08;24.15;;;20.65;;
8777;SDS011;4425;50.872;4.712;2022-11-15T02:12:39;23.60;;;21.10;;
8777;SDS011;4425;50.872;4.712;2022-11-15T02:15:12;21.90;;;19.70;;
8777;SDS011;4425;50.872;4.712;2022-11-15T02:17:47;22.88;;;20.48;;
8777;SDS011;4425;50.872;4.712;2022-11-15T02:20:31;21.33;;;19.13;;
8777;SDS011;4425;50.872;4.712;2022-11-15T02:23:15;22.47;;;19.63;;
8777;SDS011;4425;50.872;4.712;2022-11-15T02:26:07;21.08;;;18.77;;
8777;SDS011;4425;50.872;4.712;2022-11-15T02:28:54;20.77;;;18.58;;
8777;SDS011;4425;50.872;4.712;2022-11-15T02:31:29;20.85;;;18.45;;
8777;SDS011;4425;50.872;4.712;2022-11-15T02:34:05;21.40;;;18.35;;
8777;SDS011;4425;50.872;4.712;2022-11-15T02:36:41;21.45;;;19.25;;
8777;SDS011;4425;50.872;4.712;2022-11-15T02:39:17;21.07;;;18.77;;
8777;SDS011;4425;50.872;4.712;2022-11-15T02:41:54;20.23;;;18.23;;
8777;SDS011;4425;50.872;4.712;2022-11-15T02:44:23;20.25;;;17.75;;
8777;SDS011;4425;50.872;4.712;2022-11-15T02:46:53;20.27;;;17.67;;
8777;SDS011;4425;50.872;4.712;2022-11-15T02:49:44;19.60;;;17.40;;
8777;SDS011;4425;50.872;4.712;2022-11-15T02:52:14;22.77;;;18.93;;
8777;SDS011;4425;50.872;4.712;2022-11-15T02:54:52;21.42;;;19.15;;
8777;SDS011;4425;50.872;4.712;2022-11-15T02:57:23;21.73;;;18.95;;
8777;SDS011;4425;50.872;4.712;2022-11-15T03:00:03;20.40;;;18.33;;
8777;SDS011;4425;50.872;4.712;2022-11-15T03:02:46;18.73;;;16.90;;
8777;SDS011;4425;50.872;4.712;2022-11-15T03:05:34;19.45;;;17.45;;
8777;SDS011;4425;50.872;4.712;2022-11-15T03:08:06;21.60;;;19.30;;
8777;SDS011;4425;50.872;4.712;2022-11-15T03:10:44;21.33;;;19.17;;
8777;SDS011;4425;50.872;4.712;2022-11-15T03:13:20;20.63;;;18.53;;
8777;SDS011;4425;50.872;4.712;2022-11-15T03:15:54;22.17;;;19.77;;
8777;SDS011;4425;50.872;4.712;2022-11-15T03:18:31;22.30;;;19.83;;
8777;SDS011;4425;50.872;4.712;2022-11-15T03:21:00;20.50;;;18.42;;
8777;SDS011;4425;50.872;4.712;2022-11-15T03:23:31;20.40;;;18.42;;
8777;SDS011;4425;50.872;4.712;2022-11-15T03:26:00;25.03;;;20.50;;
8777;SDS011;4425;50.872;4.712;2022-11-15T03:28:28;20.15;;;18.05;;
8777;SDS011;4425;50.872;4.712;2022-11-15T03:31:00;21.25;;;19.05;;
8777;SDS011;4425;50.872;4.712;2022-11-15T03:33:52;22.25;;;19.85;;
8777;SDS011;4425;50.872;4.712;2022-11-15T03:36:23;22.95;;;20.52;;
8777;SDS011;4425;50.872;4.712;2022-11-15T03:38:52;21.55;;;19.25;;
8777;SDS011;4425;50.872;4.712;2022-11-15T03:41:23;24.52;;;20.13;;
8777;SDS011;4425;50.872;4.712;2022-11-15T03:43:55;22.80;;;20.25;;
8777;SDS011;4425;50.872;4.712;2022-11-15T03:46:33;21.02;;;18.85;;
8777;SDS011;4425;50.872;4.712;2022-11-15T03:49:09;22.08;;;19.63;;
8777;SDS011;4425;50.872;4.712;2022-11-15T03:51:41;22.08;;;19.80;;
8777;SDS011;4425;50.872;4.712;2022-11-15T03:54:11;21.45;;;19.15;;
8777;SDS011;4425;50.872;4.712;2022-11-15T03:56:41;20.38;;;18.25;;
8777;SDS011;4425;50.872;4.712;2022-11-15T03:59:08;20.13;;;17.45;;
8777;SDS011;4425;50.872;4.712;2022-11-15T04:01:35;19.70;;;17.63;;
8777;SDS011;4425;50.872;4.712;2022-11-15T04:04:02;21.00;;;17.92;;
8777;SDS011;4425;50.872;4.712;2022-11-15T04:06:33;18.70;;;16.65;;
8777;SDS011;4425;50.872;4.712;2022-11-15T04:09:01;18.63;;;16.83;;
8777;SDS011;4425;50.872;4.712;2022-11-15T04:11:30;18.75;;;16.73;;
8777;SDS011;4425;50.872;4.712;2022-11-15T04:13:57;17.43;;;15.53;;
8777;SDS011;4425;50.872;4.712;2022-11-15T04:16:24;17.53;;;15.53;;
8777;SDS011;4425;50.872;4.712;2022-11-15T04:18:51;18.23;;;15.52;;
8777;SDS011;4425;50.872;4.712;2022-11-15T04:21:34;17.17;;;15.33;;
8777;SDS011;4425;50.872;4.712;2022-11-15T04:24:19;17.25;;;15.18;;
8777;SDS011;4425;50.872;4.712;2022-11-15T04:26:48;18.13;;;15.80;;
8777;SDS011;4425;50.872;4.712;2022-11-15T04:29:17;15.70;;;14.10;;
8777;SDS011;4425;50.872;4.712;2022-11-15T04:32:03;17.52;;;15.68;;
8777;SDS011;4425;50.872;4.712;2022-11-15T04:34:32;16.17;;;14.48;;
8777;SDS011;4425;50.872;4.712;2022-11-15T04:37:00;17.73;;;15.75;;
8777;SDS011;4425;50.872;4.712;2022-11-15T04:39:44;18.85;;;15.30;;
8777;SDS011;4425;50.872;4.712;2022-11-15T04:42:12;15.93;;;14.00;;
8777;SDS011;4425;50.872;4.712;2022-11-15T04:44:40;15.45;;;13.77;;
8777;SDS011;4425;50.872;4.712;2022-11-15T04:47:08;15.70;;;14.03;;
8777;SDS011;4425;50.872;4.712;2022-11-15T04:49:35;16.38;;;13.55;;
8777;SDS011;4425;50.872;4.712;2022-11-15T04:52:05;16.47;;;13.17;;
8777;SDS011;4425;50.872;4.712;2022-11-15T04:54:33;15.73;;;13.10;;
8777;SDS011;4425;50.872;4.712;2022-11-15T04:57:00;29.05;;;24.27;;
8777;SDS011;4425;50.872;4.712;2022-11-15T04:59:27;14.95;;;13.35;;
8777;SDS011;4425;50.872;4.712;2022-11-15T05:01:55;14.03;;;11.90;;
8777;SDS011;4425;50.872;4.712;2022-11-15T05:04:22;14.00;;;11.93;;
8777;SDS011;4425;50.872;4.712;2022-11-15T05:06:48;12.88;;;11.50;;
8777;SDS011;4425;50.872;4.712;2022-11-15T05:09:18;12.70;;;11.30;;
8777;SDS011;4425;50.872;4.712;2022-11-15T05:11:47;12.98;;;11.38;;
8777;SDS011;4425;50.872;4.712;2022-11-15T05:14:15;12.67;;;11.37;;
8777;SDS011;4425;50.872;4.712;2022-11-15T05:16:45;13.38;;;11.60;;
8777;SDS011;4425;50.872;4.712;2022-11-15T05:19:12;12.90;;;11.40;;
8777;SDS011;4425;50.872;4.712;2022-11-15T05:21:39;14.40;;;11.93;;
8777;SDS011;4425;50.872;4.712;2022-11-15T05:24:06;13.20;;;11.02;;
8777;SDS011;4425;50.872;4.712;2022-11-15T05:26:37;12.95;;;11.32;;
8777;SDS011;4425;50.872;4.712;2022-11-15T05:29:04;12.30;;;11.00;;
8777;SDS011;4425;50.872;4.712;2022-11-15T05:31:31;12.88;;;10.68;;
8777;SDS011;4425;50.872;4.712;2022-11-15T05:33:58;12.30;;;10.95;;
8777;SDS011;4425;50.872;4.712;2022-11-15T05:36:28;12.30;;;11.10;;
8777;SDS011;4425;50.872;4.712;2022-11-15T05:38:57;12.70;;;10.13;;
8777;SDS011;4425;50.872;4.712;2022-11-15T05:41:32;13.13;;;10.52;;
8777;SDS011;4425;50.872;4.712;2022-11-15T05:44:06;12.57;;;10.55;;
8777;SDS011;4425;50.872;4.712;2022-11-15T05:46:36;10.53;;;9.53;;
8777;SDS011;4425;50.872;4.712;2022-11-15T05:49:05;12.13;;;10.43;;
8777;SDS011;4425;50.872;4.712;2022-11-15T05:51:39;11.02;;;9.85;;
8777;SDS011;4425;50.872;4.712;2022-11-15T05:54:10;11.43;;;10.30;;
8777;SDS011;4425;50.872;4.712;2022-11-15T05:56:38;14.68;;;10.30;;
8777;SDS011;4425;50.872;4.712;2022-11-15T05:59:07;13.45;;;10.10;;
8777;SDS011;4425;50.872;4.712;2022-11-15T06:01:38;12.55;;;10.07;;
8777;SDS011;4425;50.872;4.712;2022-11-15T06:04:06;12.38;;;10.30;;
8777;SDS011;4425;50.872;4.712;2022-11-15T06:06:33;11.02;;;9.80;;
8777;SDS011;4425;50.872;4.712;2022-11-15T06:09:02;13.23;;;9.90;;
8777;SDS011;4425;50.872;4.712;2022-11-15T06:11:30;11.63;;;10.38;;
8777;SDS011;4425;50.872;4.712;2022-11-15T06:13:57;12.48;;;9.82;;
8777;SDS011;4425;50.872;4.712;2022-11-15T06:16:26;12.68;;;9.68;;
8777;SDS011;4425;50.872;4.712;2022-11-15T06:18:53;12.70;;;9.98;;
8777;SDS011;4425;50.872;4.712;2022-11-15T06:21:20;11.30;;;9.73;;
8777;SDS011;4425;50.872;4.712;2022-11-15T06:23:47;12.18;;;9.85;;
8777;SDS011;4425;50.872;4.712;2022-11-15T06:26:14;12.45;;;10.02;;
8777;SDS011;4425;50.872;4.712;2022-11-15T06:28:41;14.07;;;10.50;;
8777;SDS011;4425;50.872;4.712;2022-11-15T06:31:09;11.95;;;10.50;;
8777;SDS011;4425;50.872;4.712;2022-11-15T06:33:38;12.27;;;10.13;;
8777;SDS011;4425;50.872;4.712;2022-11-15T06:36:09;14.65;;;10.98;;
8777;SDS011;4425;50.872;4.712;2022-11-15T06:38:41;13.17;;;11.13;;
8777;SDS011;4425;50.872;4.712;2022-11-15T06:41:09;13.75;;;11.25;;
8777;SDS011;4425;50.872;4.712;2022-11-15T06:43:37;13.98;;;11.10;;
8777;SDS011;4425;50.872;4.712;2022-11-15T06:46:06;15.23;;;11.43;;
8777;SDS011;4425;50.872;4.712;2022-11-15T06:48:33;13.63;;;11.05;;
8777;SDS011;4425;50.872;4.712;2022-11-15T06:51:03;14.93;;;11.52;;
8777;SDS011;4425;50.872;4.712;2022-11-15T06:53:31;13.77;;;11.25;;
8777;SDS011;4425;50.872;4.712;2022-11-15T06:55:59;15.75;;;12.02;;
8777;SDS011;4425;50.872;4.712;2022-11-15T06:58:33;15.60;;;12.10;;
8777;SDS011;4425;50.872;4.712;2022-11-15T07:01:00;14.20;;;10.93;;
8777;SDS011;4425;50.872;4.712;2022-11-15T07:03:28;16.60;;;11.02;;
8777;SDS011;4425;50.872;4.712;2022-11-15T07:05:56;12.60;;;11.18;;
8777;SDS011;4425;50.872;4.712;2022-11-15T07:08:26;14.90;;;11.10;;
8777;SDS011;4425;50.872;4.712;2022-11-15T07:10:54;13.90;;;10.60;;
8777;SDS011;4425;50.872;4.712;2022-11-15T07:13:24;12.55;;;10.50;;
8777;SDS011;4425;50.872;4.712;2022-11-15T07:15:53;12.98;;;10.80;;
8777;SDS011;4425;50.872;4.712;2022-11-15T07:18:23;12.27;;;10.70;;
8777;SDS011;4425;50.872;4.712;2022-11-15T07:21:00;13.43;;;10.50;;
8777;SDS011;4425;50.872;4.712;2022-11-15T07:23:29;12.02;;;10.48;;
8777;SDS011;4425;50.872;4.712;2022-11-15T07:25:58;10.77;;;9.67;;
8777;SDS011;4425;50.872;4.712;2022-11-15T07:28:25;11.75;;;9.48;;
8777;SDS011;4425;50.872;4.712;2022-11-15T07:30:54;9.00;;;8.10;;
8777;SDS011;4425;50.872;4.712;2022-11-15T07:33:23;10.65;;;7.72;;
8777;SDS011;4425;50.872;4.712;2022-11-15T07:35:51;9.95;;;7.15;;
8777;SDS011;4425;50.872;4.712;2022-11-15T07:38:19;8.60;;;6.90;;
8777;SDS011;4425;50.872;4.712;2022-11-15T07:40:55;8.95;;;6.53;;
8777;SDS011;4425;50.872;4.712;2022-11-15T07:43:23;9.80;;;6.68;;
8777;SDS011;4425;50.872;4.712;2022-11-15T07:45:53;7.55;;;6.60;;
8777;SDS011;4425;50.872;4.712;2022-11-15T07:48:21;7.70;;;6.72;;
8777;SDS011;4425;50.872;4.712;2022-11-15T07:51:03;8.25;;;6.40;;
8777;SDS011;4425;50.872;4.712;2022-11-15T07:53:30;6.95;;;5.93;;
8777;SDS011;4425;50.872;4.712;2022-11-15T07:55:59;7.75;;;6.15;;
8777;SDS011;4425;50.872;4.712;2022-11-15T07:58:28;8.18;;;6.07;;
8777;SDS011;4425;50.872;4.712;2022-11-15T08:00:58;9.23;;;6.60;;
8777;SDS011;4425;50.872;4.712;2022-11-15T08:03:29;6.72;;;5.88;;
8777;SDS011;4425;50.872;4.712;2022-11-15T08:05:57;8.55;;;6.40;;
8777;SDS011;4425;50.872;4.712;2022-11-15T08:08:24;8.33;;;6.07;;
8777;SDS011;4425;50.872;4.712;2022-11-15T08:10:52;6.70;;;5.88;;
8777;SDS011;4425;50.872;4.712;2022-11-15T08:13:20;6.63;;;4.90;;
8777;SDS011;4425;50.872;4.712;2022-11-15T08:15:47;5.72;;;5.15;;
8777;SDS011;4425;50.872;4.712;2022-11-15T08:18:15;5.05;;;4.53;;
8777;SDS011;4425;50.872;4.712;2022-11-15T08:20:43;5.57;;;4.32;;
8777;SDS011;4425;50.872;4.712;2022-11-15T08:23:11;4.22;;;3.80;;
8777;SDS011;4425;50.872;4.712;2022-11-15T08:25:39;4.60;;;3.60;;
8777;SDS011;4425;50.872;4.712;2022-11-15T08:28:07;6.22;;;3.20;;
8777;SDS011;4425;50.872;4.712;2022-11-15T08:30:39;5.40;;;3.10;;
8777;SDS011;4425;50.872;4.712;2022-11-15T08:33:10;5.50;;;2.90;;
8777;SDS011;4425;50.872;4.712;2022-11-15T08:35:38;4.00;;;2.70;;
8777;SDS011;4425;50.872;4.712;2022-11-15T08:38:06;4.85;;;2.50;;
8777;SDS011;4425;50.872;4.712;2022-11-15T08:40:33;5.78;;;2.65;;
8777;SDS011;4425;50.872;4.712;2022-11-15T08:43:00;6.22;;;2.58;;
8777;SDS011;4425;50.872;4.712;2022-11-15T08:45:27;7.68;;;2.55;;
8777;SDS011;4425;50.872;4.712;2022-11-15T08:47:56;5.55;;;2.40;;
8777;SDS011;4425;50.872;4.712;2022-11-15T08:50:24;5.47;;;2.40;;
8777;SDS011;4425;50.872;4.712;2022-11-15T08:52:51;4.85;;;2.47;;
8777;SDS011;4425;50.872;4.712;2022-11-15T08:55:18;4.93;;;2.35;;
8777;SDS011;4425;50.872;4.712;2022-11-15T08:57:46;5.87;;;2.50;;
8777;SDS011;4425;50.872;4.712;2022-11-15T09:00:13;5.10;;;2.40;;
8777;SDS011;4425;50.872;4.712;2022-11-15T09:02:41;4.45;;;2.50;;
8777;SDS011;4425;50.872;4.712;2022-11-15T09:05:09;4.60;;;2.40;;
8777;SDS011;4425;50.872;4.712;2022-11-15T09:07:37;4.53;;;2.20;;
8777;SDS011;4425;50.872;4.712;2022-11-15T09:10:05;7.88;;;2.13;;
8777;SDS011;4425;50.872;4.712;2022-11-15T09:12:32;6.43;;;2.40;;
8777;SDS011;4425;50.872;4.712;2022-11-15T09:15:00;5.93;;;2.38;;
8777;SDS011;4425;50.872;4.712;2022-11-15T09:17:27;8.68;;;2.58;;
8777;SDS011;4425;50.872;4.712;2022-11-15T09:19:56;4.65;;;2.40;;
8777;SDS011;4425;50.872;4.712;2022-11-15T09:22:24;5.25;;;2.17;;
8777;SDS011;4425;50.872;4.712;2022-11-15T09:24:51;6.32;;;2.53;;
8777;SDS011;4425;50.872;4.712;2022-11-15T09:27:19;6.13;;;2.30;;
8777;SDS011;4425;50.872;4.712;2022-11-15T09:29:46;6.40;;;2.70;;
8777;SDS011;4425;50.872;4.712;2022-11-15T09:32:13;7.03;;;2.45;;
8777;SDS011;4425;50.872;4.712;2022-11-15T09:34:40;5.68;;;2.35;;
8777;SDS011;4425;50.872;4.712;2022-11-15T09:37:08;4.97;;;2.00;;
8777;SDS011;4425;50.872;4.712;2022-11-15T09:39:37;5.68;;;2.40;;
8777;SDS011;4425;50.872;4.712;2022-11-15T09:45:02;4.03;;;2.05;;
8777;SDS011;4425;50.872;4.712;2022-11-15T09:50:50;5.83;;;2.17;;
8777;SDS011;4425;50.872;4.712;2022-11-15T09:53:21;5.78;;;2.17;;
8777;SDS011;4425;50.872;4.712;2022-11-15T09:55:56;5.22;;;2.00;;
8777;SDS011;4425;50.872;4.712;2022-11-15T09:58:29;5.55;;;1.95;;
8777;SDS011;4425;50.872;4.712;2022-11-15T10:01:06;5.88;;;2.03;;
8777;SDS011;4425;50.872;4.712;2022-11-15T10:03:38;6.32;;;2.15;;
8777;SDS011;4425;50.872;4.712;2022-11-15T10:06:08;4.90;;;1.80;;
8777;SDS011;4425;50.872;4.712;2022-11-15T10:08:51;3.85;;;1.77;;
8777;SDS011;4425;50.872;4.712;2022-11-15T10:11:27;6.25;;;2.03;;
8777;SDS011;4425;50.872;4.712;2022-11-15T10:13:57;5.55;;;2.00;;
8777;SDS011;4425;50.872;4.712;2022-11-15T10:16:35;5.50;;;2.20;;
8777;SDS011;4425;50.872;4.712;2022-11-15T10:19:21;5.63;;;2.10;;
8777;SDS011;4425;50.872;4.712;2022-11-15T10:21:56;5.93;;;2.10;;
8777;SDS011;4425;50.872;4.712;2022-11-15T10:24:32;5.57;;;1.92;;
8777;SDS011;4425;50.872;4.712;2022-11-15T10:27:08;3.58;;;2.08;;
8777;SDS011;4425;50.872;4.712;2022-11-15T10:29:40;4.90;;;1.98;;
8777;SDS011;4425;50.872;4.712;2022-11-15T10:32:10;4.47;;;2.08;;
8777;SDS011;4425;50.872;4.712;2022-11-15T10:34:37;5.55;;;2.35;;
8777;SDS011;4425;50.872;4.712;2022-11-15T10:37:04;7.03;;;2.22;;
8777;SDS011;4425;50.872;4.712;2022-11-15T10:39:31;4.03;;;2.05;;
8777;SDS011;4425;50.872;4.712;2022-11-15T10:42:03;4.30;;;1.98;;
8777;SDS011;4425;50.872;4.712;2022-11-15T10:44:45;4.68;;;2.10;;
8777;SDS011;4425;50.872;4.712;2022-11-15T10:50:02;6.30;;;3.23;;
8777;SDS011;4425;50.872;4.712;2022-11-15T10:52:33;4.50;;;2.10;;
8777;SDS011;4425;50.872;4.712;2022-11-15T10:55:19;18.10;;;2.60;;
8777;SDS011;4425;50.872;4.712;2022-11-15T10:57:52;6.03;;;2.10;;
8777;SDS011;4425;50.872;4.712;2022-11-15T11:00:27;5.33;;;2.10;;
8777;SDS011;4425;50.872;4.712;2022-11-15T11:02:58;4.17;;;2.00;;
8777;SDS011;4425;50.872;4.712;2022-11-15T11:05:27;4.65;;;2.10;;
8777;SDS011;4425;50.872;4.712;2022-11-15T11:07:57;5.13;;;2.00;;
8777;SDS011;4425;50.872;4.712;2022-11-15T11:10:26;5.30;;;2.10;;
8777;SDS011;4425;50.872;4.712;2022-11-15T11:13:05;3.35;;;1.83;;
8777;SDS011;4425;50.872;4.712;2022-11-15T11:15:43;3.53;;;1.90;;
8777;SDS011;4425;50.872;4.712;2022-11-15T11:18:15;6.47;;;2.00;;
8777;SDS011;4425;50.872;4.712;2022-11-15T11:20:51;8.57;;;5.10;;
8777;SDS011;4425;50.872;4.712;2022-11-15T11:23:34;6.70;;;2.20;;
8777;SDS011;4425;50.872;4.712;2022-11-15T11:26:14;5.80;;;2.00;;
8777;SDS011;4425;50.872;4.712;2022-11-15T11:29:08;5.22;;;2.20;;
8777;SDS011;4425;50.872;4.712;2022-11-15T11:31:47;5.25;;;2.25;;
8777;SDS011;4425;50.872;4.712;2022-11-15T11:34:28;5.53;;;2.10;;
8777;SDS011;4425;50.872;4.712;2022-11-15T11:37:03;7.10;;;2.28;;
8777;SDS011;4425;50.872;4.712;2022-11-15T11:39:41;5.20;;;2.00;;
8777;SDS011;4425;50.872;4.712;2022-11-15T11:42:24;4.43;;;1.80;;
8777;SDS011;4425;50.872;4.712;2022-11-15T11:45:19;4.63;;;1.85;;
8777;SDS011;4425;50.872;4.712;2022-11-15T11:47:57;4.68;;;1.92;;
8777;SDS011;4425;50.872;4.712;2022-11-15T11:50:37;3.37;;;1.83;;
8777;SDS011;4425;50.872;4.712;2022-11-15T11:53:08;5.03;;;1.95;;
8777;SDS011;4425;50.872;4.712;2022-11-15T11:55:42;4.63;;;1.90;;
8777;SDS011;4425;50.872;4.712;2022-11-15T11:58:13;7.53;;;2.03;;
8777;SDS011;4425;50.872;4.712;2022-11-15T12:00:49;3.47;;;1.70;;
8777;SDS011;4425;50.872;4.712;2022-11-15T12:05:56;7.38;;;2.08;;
8777;SDS011;4425;50.872;4.712;2022-11-15T12:08:31;4.28;;;1.83;;
8777;SDS011;4425;50.872;4.712;2022-11-15T12:11:04;3.78;;;1.80;;
8777;SDS011;4425;50.872;4.712;2022-11-15T12:13:37;4.18;;;1.83;;
8777;SDS011;4425;50.872;4.712;2022-11-15T12:16:10;4.93;;;1.77;;
8777;SDS011;4425;50.872;4.712;2022-11-15T12:18:41;5.90;;;1.75;;
8777;SDS011;4425;50.872;4.712;2022-11-15T12:21:18;8.38;;;2.00;;
8777;SDS011;4425;50.872;4.712;2022-11-15T12:23:52;3.22;;;1.60;;
8777;SDS011;4425;50.872;4.712;2022-11-15T12:26:24;4.45;;;1.85;;
8777;SDS011;4425;50.872;4.712;2022-11-15T12:28:57;4.70;;;2.00;;
8777;SDS011;4425;50.872;4.712;2022-11-15T12:31:32;2.92;;;1.60;;
8777;SDS011;4425;50.872;4.712;2022-11-15T12:34:04;3.53;;;1.70;;
8777;SDS011;4425;50.872;4.712;2022-11-15T12:36:55;2.50;;;1.90;;
8777;SDS011;4425;50.872;4.712;2022-11-15T12:42:39;3.47;;;1.80;;
8777;SDS011;4425;50.872;4.712;2022-11-15T12:45:27;3.40;;;1.80;;
8777;SDS011;4425;50.872;4.712;2022-11-15T12:51:00;2.35;;;1.60;;
8777;SDS011;4425;50.872;4.712;2022-11-15T12:53:28;3.97;;;1.80;;
8777;SDS011;4425;50.872;4.712;2022-11-15T12:58:53;3.05;;;1.70;;
8777;SDS011;4425;50.872;4.712;2022-11-15T13:04:25;4.07;;;1.83;;
8777;SDS011;4425;50.872;4.712;2022-11-15T13:06:56;4.10;;;2.03;;
8777;SDS011;4425;50.872;4.712;2022-11-15T13:15:33;3.75;;;1.80;;
8777;SDS011;4425;50.872;4.712;2022-11-15T13:18:32;4.18;;;1.80;;
8777;SDS011;4425;50.872;4.712;2022-11-15T13:21:17;2.55;;;1.40;;
8777;SDS011;4425;50.872;4.712;2022-11-15T13:24:11;2.25;;;1.90;;
8777;SDS011;4425;50.872;4.712;2022-11-15T13:26:42;3.75;;;1.88;;
8777;SDS011;4425;50.872;4.712;2022-11-15T13:29:19;5.27;;;1.80;;
8777;SDS011;4425;50.872;4.712;2022-11-15T13:31:47;3.92;;;1.77;;
8777;SDS011;4425;50.872;4.712;2022-11-15T13:37:02;3.80;;;1.60;;
8777;SDS011;4425;50.872;4.712;2022-11-15T13:39:32;2.95;;;1.67;;
8777;SDS011;4425;50.872;4.712;2022-11-15T13:42:02;4.57;;;1.80;;
8777;SDS011;4425;50.872;4.712;2022-11-15T13:44:32;5.07;;;1.70;;
8777;SDS011;4425;50.872;4.712;2022-11-15T13:47:01;2.67;;;1.53;;
8777;SDS011;4425;50.872;4.712;2022-11-15T13:49:31;4.72;;;1.67;;
8777;SDS011;4425;50.872;4.712;2022-11-15T13:51:59;3.97;;;1.50;;
8777;SDS011;4425;50.872;4.712;2022-11-15T13:54:33;4.45;;;2.20;;
8777;SDS011;4425;50.872;4.712;2022-11-15T13:57:08;2.93;;;1.60;;
8777;SDS011;4425;50.872;4.712;2022-11-15T13:59:44;3.03;;;1.70;;
8777;SDS011;4425;50.872;4.712;2022-11-15T14:02:13;2.40;;;1.63;;
8777;SDS011;4425;50.872;4.712;2022-11-15T14:04:45;5.10;;;1.80;;
8777;SDS011;4425;50.872;4.712;2022-11-15T14:07:16;2.20;;;1.50;;
8777;SDS011;4425;50.872;4.712;2022-11-15T14:09:47;1.73;;;1.60;;
8777;SDS011;4425;50.872;4.712;2022-11-15T14:15:18;3.22;;;1.60;;
8777;SDS011;4425;50.872;4.712;2022-11-15T14:17:51;3.08;;;1.40;;
8777;SDS011;4425;50.872;4.712;2022-11-15T14:20:19;1.80;;;1.70;;
8777;SDS011;4425;50.872;4.712;2022-11-15T14:22:56;3.15;;;1.80;;
8777;SDS011;4425;50.872;4.712;2022-11-15T14:25:28;2.40;;;1.60;;
8777;SDS011;4425;50.872;4.712;2022-11-15T14:28:11;2.05;;;1.33;;
8777;SDS011;4425;50.872;4.712;2022-11-15T14:30:41;3.50;;;1.55;;
8777;SDS011;4425;50.872;4.712;2022-11-15T14:33:19;1.67;;;1.55;;
8777;SDS011;4425;50.872;4.712;2022-11-15T14:35:48;2.63;;;1.73;;
8777;SDS011;4425;50.872;4.712;2022-11-15T14:38:16;3.25;;;1.50;;
8777;SDS011;4425;50.872;4.712;2022-11-15T14:40:45;1.85;;;1.60;;
8777;SDS011;4425;50.872;4.712;2022-11-15T14:43:13;1.90;;;1.60;;
8777;SDS011;4425;50.872;4.712;2022-11-15T14:45:41;1.95;;;1.80;;
8777;SDS011;4425;50.872;4.712;2022-11-15T14:48:08;1.70;;;1.60;;
8777;SDS011;4425;50.872;4.712;2022-11-15T14:50:37;2.00;;;1.70;;
8777;SDS011;4425;50.872;4.712;2022-11-15T14:53:06;2.70;;;1.55;;
8777;SDS011;4425;50.872;4.712;2022-11-15T14:55:39;1.80;;;1.70;;
8777;SDS011;4425;50.872;4.712;2022-11-15T14:58:07;2.33;;;1.70;;
8777;SDS011;4425;50.872;4.712;2022-11-15T15:00:36;2.10;;;1.90;;
8777;SDS011;4425;50.872;4.712;2022-11-15T15:03:05;1.70;;;1.60;;
8777;SDS011;4425;50.872;4.712;2022-11-15T15:05:37;1.70;;;1.60;;
8777;SDS011;4425;50.872;4.712;2022-11-15T15:08:07;2.35;;;1.70;;
8777;SDS011;4425;50.872;4.712;2022-11-15T15:10:35;1.90;;;1.75;;
8777;SDS011;4425;50.872;4.712;2022-11-15T15:13:04;1.67;;;1.58;;
8777;SDS011;4425;50.872;4.712;2022-11-15T15:15:40;3.58;;;1.70;;
8777;SDS011;4425;50.872;4.712;2022-11-15T15:18:10;2.03;;;1.80;;
8777;SDS011;4425;50.872;4.712;2022-11-15T15:20:37;1.80;;;1.70;;
8777;SDS011;4425;50.872;4.712;2022-11-15T15:23:07;2.20;;;1.80;;
8777;SDS011;4425;50.872;4.712;2022-11-15T15:25:41;2.05;;;1.85;;
8777;SDS011;4425;50.872;4.712;2022-11-15T15:28:08;1.98;;;1.88;;
8777;SDS011;4425;50.872;4.712;2022-11-15T15:30:39;2.55;;;2.00;;
8777;SDS011;4425;50.872;4.712;2022-11-15T15:33:08;1.80;;;1.70;;
8777;SDS011;4425;50.872;4.712;2022-11-15T15:35:36;2.35;;;2.10;;
8777;SDS011;4425;50.872;4.712;2022-11-15T15:38:03;3.08;;;2.08;;
8777;SDS011;4425;50.872;4.712;2022-11-15T15:40:31;3.13;;;2.30;;
8777;SDS011;4425;50.872;4.712;2022-11-15T15:42:59;2.28;;;2.13;;
8777;SDS011;4425;50.872;4.712;2022-11-15T15:45:27;2.40;;;2.20;;
8777;SDS011;4425;50.872;4.712;2022-11-15T15:47:56;2.40;;;2.20;;
8777;SDS011;4425;50.872;4.712;2022-11-15T15:50:24;2.83;;;2.40;;
8777;SDS011;4425;50.872;4.712;2022-11-15T15:52:53;2.85;;;2.28;;
8777;SDS011;4425;50.872;4.712;2022-11-15T15:55:23;2.90;;;2.37;;
8777;SDS011;4425;50.872;4.712;2022-11-15T15:57:51;2.42;;;2.20;;
8777;SDS011;4425;50.872;4.712;2022-11-15T16:00:19;2.60;;;2.40;;
8777;SDS011;4425;50.872;4.712;2022-11-15T16:02:48;2.60;;;2.40;;